sensor_id;sensor_type;location;lat;lon;timestamp;temperature;humidity
40287;DHT22;25998;46.604;13.610;2023-08-31T00:04:08;14.80;99.90
40287;DHT22;25998;46.604;13.610;2023-08-31T00:07:28;14.70;99.90
40287;DHT22;25998;46.604;13.610;2023-08-31T00:10:39;14.80;99.90
40287;DHT22;25998;46.604;13.610;2023-08-31T00:13:50;14.70;99.90
40287;DHT22;25998;46.604;13.610;2023-08-31T00:17:20;14.70;99.90
40287;DHT22;25998;46.604;13.610;2023-08-31T00:29:09;14.70;99.90
40287;DHT22;25998;46.604;13.610;2023-08-31T00:32:28;14.60;99.90
40287;DHT22;25998;46.604;13.610;2023-08-31T00:35:58;14.70;99.90
40287;DHT22;25998;46.604;13.610;2023-08-31T00:39:15;14.50;99.90
40287;DHT22;25998;46.604;13.610;2023-08-31T00:42:31;14.40;99.90
40287;DHT22;25998;46.604;13.610;2023-08-31T00:46:12;14.40;99.90
40287;DHT22;25998;46.604;13.610;2023-08-31T00:49:53;14.30;99.90
40287;DHT22;25998;46.604;13.610;2023-08-31T00:53:32;14.40;99.90
40287;DHT22;25998;46.604;13.610;2023-08-31T00:56:45;14.40;99.90
40287;DHT22;25998;46.604;13.610;2023-08-31T01:07:39;14.50;99.90
40287;DHT22;25998;46.604;13.610;2023-08-31T01:11:14;14.20;99.90
40287;DHT22;25998;46.604;13.610;2023-08-31T01:14:42;14.20;99.90
40287;DHT22;25998;46.604;13.610;2023-08-31T01:17:55;14.40;99.90
40287;DHT22;25998;46.604;13.610;2023-08-31T01:21:19;14.40;99.90
40287;DHT22;25998;46.604;13.610;2023-08-31T01:24:31;14.40;99.90
40287;DHT22;25998;46.604;13.610;2023-08-31T01:27:43;14.50;99.90
40287;DHT22;25998;46.604;13.610;2023-08-31T01:42:20;14.50;99.90
40287;DHT22;25998;46.604;13.610;2023-08-31T01:45:33;14.50;99.90
40287;DHT22;25998;46.604;13.610;2023-08-31T01:48:46;14.50;99.90
40287;DHT22;25998;46.604;13.610;2023-08-31T01:51:57;14.40;99.90
40287;DHT22;25998;46.604;13.610;2023-08-31T01:55:09;14.20;99.90
40287;DHT22;25998;46.604;13.610;2023-08-31T01:58:20;14.10;99.90
40287;DHT22;25998;46.604;13.610;2023-08-31T02:01:32;14.00;99.90
40287;DHT22;25998;46.604;13.610;2023-08-31T02:04:44;14.10;99.90
40287;DHT22;25998;46.604;13.610;2023-08-31T02:12:01;14.20;99.90
40287;DHT22;25998;46.604;13.610;2023-08-31T02:15:12;14.30;99.90
40287;DHT22;25998;46.604;13.610;2023-08-31T02:18:23;14.30;99.90
40287;DHT22;25998;46.604;13.610;2023-08-31T02:21:35;14.20;99.90
40287;DHT22;25998;46.604;13.610;2023-08-31T02:24:46;14.20;99.90
40287;DHT22;25998;46.604;13.610;2023-08-31T02:27:58;14.20;99.90
40287;DHT22;25998;46.604;13.610;2023-08-31T02:31:10;14.10;99.90
40287;DHT22;25998;46.604;13.610;2023-08-31T02:34:22;14.10;99.90
40287;DHT22;25998;46.604;13.610;2023-08-31T02:37:36;14.10;99.90
40287;DHT22;25998;46.604;13.610;2023-08-31T02:40:50;14.00;99.90
40287;DHT22;25998;46.604;13.610;2023-08-31T02:44:05;13.90;99.90
40287;DHT22;25998;46.604;13.610;2023-08-31T02:47:18;13.90;99.90
40287;DHT22;25998;46.604;13.610;2023-08-31T02:50:30;14.00;99.90
40287;DHT22;25998;46.604;13.610;2023-08-31T02:53:42;14.00;99.90
40287;DHT22;25998;46.604;13.610;2023-08-31T02:56:55;13.90;99.90
40287;DHT22;25998;46.604;13.610;2023-08-31T03:00:07;13.90;99.90
40287;DHT22;25998;46.604;13.610;2023-08-31T03:03:24;14.00;99.90
40287;DHT22;25998;46.604;13.610;2023-08-31T03:06:35;14.10;99.90
40287;DHT22;25998;46.604;13.610;2023-08-31T03:09:50;14.10;99.90
40287;DHT22;25998;46.604;13.610;2023-08-31T03:13:03;14.00;99.90
40287;DHT22;25998;46.604;13.610;2023-08-31T03:16:15;14.10;99.90
40287;DHT22;25998;46.604;13.610;2023-08-31T03:19:27;14.10;99.90
40287;DHT22;25998;46.604;13.610;2023-08-31T03:22:38;14.00;99.90
40287;DHT22;25998;46.604;13.610;2023-08-31T03:25:51;14.00;99.90
40287;DHT22;25998;46.604;13.610;2023-08-31T03:29:04;13.80;99.90
40287;DHT22;25998;46.604;13.610;2023-08-31T03:32:20;13.90;99.90
40287;DHT22;25998;46.604;13.610;2023-08-31T03:35:34;13.90;99.90
40287;DHT22;25998;46.604;13.610;2023-08-31T03:38:45;13.90;99.90
40287;DHT22;25998;46.604;13.610;2023-08-31T03:41:57;13.80;99.90
40287;DHT22;25998;46.604;13.610;2023-08-31T03:45:09;13.70;99.90
40287;DHT22;25998;46.604;13.610;2023-08-31T03:48:20;13.60;99.90
40287;DHT22;25998;46.604;13.610;2023-08-31T03:51:31;13.50;99.90
40287;DHT22;25998;46.604;13.610;2023-08-31T03:54:42;13.50;99.90
40287;DHT22;25998;46.604;13.610;2023-08-31T03:57:53;13.60;99.90
40287;DHT22;25998;46.604;13.610;2023-08-31T04:01:04;13.70;99.90
40287;DHT22;25998;46.604;13.610;2023-08-31T04:04:15;13.90;99.90
40287;DHT22;25998;46.604;13.610;2023-08-31T04:07:26;13.90;99.90
40287;DHT22;25998;46.604;13.610;2023-08-31T04:10:37;13.90;99.90
40287;DHT22;25998;46.604;13.610;2023-08-31T04:13:48;13.90;99.90
40287;DHT22;25998;46.604;13.610;2023-08-31T04:16:59;13.90;99.90
40287;DHT22;25998;46.604;13.610;2023-08-31T04:20:10;13.80;99.90
40287;DHT22;25998;46.604;13.610;2023-08-31T04:23:21;13.80;99.90
40287;DHT22;25998;46.604;13.610;2023-08-31T04:26:32;13.80;99.90
40287;DHT22;25998;46.604;13.610;2023-08-31T04:29:44;13.80;99.90
40287;DHT22;25998;46.604;13.610;2023-08-31T04:32:54;13.60;99.90
40287;DHT22;25998;46.604;13.610;2023-08-31T04:36:05;13.60;99.90
40287;DHT22;25998;46.604;13.610;2023-08-31T04:39:16;13.70;99.90
40287;DHT22;25998;46.604;13.610;2023-08-31T04:42:27;13.60;99.90
40287;DHT22;25998;46.604;13.610;2023-08-31T04:45:38;13.60;99.90
40287;DHT22;25998;46.604;13.610;2023-08-31T04:48:49;13.70;99.90
40287;DHT22;25998;46.604;13.610;2023-08-31T04:52:00;13.80;99.90
40287;DHT22;25998;46.604;13.610;2023-08-31T04:55:13;13.80;99.90
40287;DHT22;25998;46.604;13.610;2023-08-31T04:58:24;13.80;99.90
40287;DHT22;25998;46.604;13.610;2023-08-31T05:01:35;13.70;99.90
40287;DHT22;25998;46.604;13.610;2023-08-31T05:04:46;13.80;99.90
40287;DHT22;25998;46.604;13.610;2023-08-31T05:07:57;13.70;99.90
40287;DHT22;25998;46.604;13.610;2023-08-31T05:11:09;13.80;99.90
40287;DHT22;25998;46.604;13.610;2023-08-31T05:14:20;13.70;99.90
40287;DHT22;25998;46.604;13.610;2023-08-31T05:17:31;13.70;99.90
40287;DHT22;25998;46.604;13.610;2023-08-31T05:20:45;13.50;99.90
40287;DHT22;25998;46.604;13.610;2023-08-31T05:23:57;13.30;99.90
40287;DHT22;25998;46.604;13.610;2023-08-31T05:27:07;13.30;99.90
40287;DHT22;25998;46.604;13.610;2023-08-31T05:30:18;13.20;99.90
40287;DHT22;25998;46.604;13.610;2023-08-31T05:33:29;13.20;99.90
40287;DHT22;25998;46.604;13.610;2023-08-31T05:36:44;13.20;99.90
40287;DHT22;25998;46.604;13.610;2023-08-31T05:39:55;13.30;99.90
40287;DHT22;25998;46.604;13.610;2023-08-31T05:43:06;13.30;99.90
40287;DHT22;25998;46.604;13.610;2023-08-31T05:46:17;13.40;99.90
40287;DHT22;25998;46.604;13.610;2023-08-31T05:49:27;13.50;99.90
40287;DHT22;25998;46.604;13.610;2023-08-31T05:52:38;13.60;99.90
40287;DHT22;25998;46.604;13.610;2023-08-31T05:55:54;13.70;99.90
40287;DHT22;25998;46.604;13.610;2023-08-31T05:59:13;13.90;99.90
40287;DHT22;25998;46.604;13.610;2023-08-31T06:02:24;13.90;99.90
40287;DHT22;25998;46.604;13.610;2023-08-31T06:05:35;14.00;99.90
40287;DHT22;25998;46.604;13.610;2023-08-31T06:08:46;14.00;99.90
40287;DHT22;25998;46.604;13.610;2023-08-31T06:11:57;14.00;99.90
40287;DHT22;25998;46.604;13.610;2023-08-31T06:15:08;14.00;99.90
40287;DHT22;25998;46.604;13.610;2023-08-31T06:18:18;14.10;99.90
40287;DHT22;25998;46.604;13.610;2023-08-31T06:21:29;14.30;99.90
40287;DHT22;25998;46.604;13.610;2023-08-31T06:24:40;14.40;99.90
40287;DHT22;25998;46.604;13.610;2023-08-31T06:27:52;14.60;99.90
40287;DHT22;25998;46.604;13.610;2023-08-31T06:31:03;14.70;99.90
40287;DHT22;25998;46.604;13.610;2023-08-31T06:34:14;14.70;99.90
40287;DHT22;25998;46.604;13.610;2023-08-31T06:37:25;14.60;99.90
40287;DHT22;25998;46.604;13.610;2023-08-31T06:40:36;14.80;99.90
40287;DHT22;25998;46.604;13.610;2023-08-31T06:43:47;15.00;99.90
40287;DHT22;25998;46.604;13.610;2023-08-31T06:46:58;14.90;99.90
40287;DHT22;25998;46.604;13.610;2023-08-31T06:50:09;15.00;99.90
40287;DHT22;25998;46.604;13.610;2023-08-31T06:53:20;15.10;99.90
40287;DHT22;25998;46.604;13.610;2023-08-31T06:56:31;15.00;99.90
40287;DHT22;25998;46.604;13.610;2023-08-31T06:59:42;14.80;99.90
40287;DHT22;25998;46.604;13.610;2023-08-31T07:02:53;15.30;99.90
40287;DHT22;25998;46.604;13.610;2023-08-31T07:06:03;16.20;99.90
40287;DHT22;25998;46.604;13.610;2023-08-31T07:09:14;16.80;99.90
40287;DHT22;25998;46.604;13.610;2023-08-31T07:12:25;17.10;99.90
40287;DHT22;25998;46.604;13.610;2023-08-31T07:15:36;16.60;99.90
40287;DHT22;25998;46.604;13.610;2023-08-31T07:18:47;16.30;99.90
40287;DHT22;25998;46.604;13.610;2023-08-31T07:21:57;16.30;99.90
40287;DHT22;25998;46.604;13.610;2023-08-31T07:25:10;16.40;99.90
40287;DHT22;25998;46.604;13.610;2023-08-31T07:28:20;16.40;99.90
40287;DHT22;25998;46.604;13.610;2023-08-31T07:31:32;16.30;99.90
40287;DHT22;25998;46.604;13.610;2023-08-31T07:34:43;16.10;99.90
40287;DHT22;25998;46.604;13.610;2023-08-31T07:37:53;15.90;99.90
40287;DHT22;25998;46.604;13.610;2023-08-31T07:41:04;15.90;99.90
40287;DHT22;25998;46.604;13.610;2023-08-31T07:44:15;16.00;99.90
40287;DHT22;25998;46.604;13.610;2023-08-31T07:47:26;16.90;99.90
40287;DHT22;25998;46.604;13.610;2023-08-31T07:50:36;17.80;99.90
40287;DHT22;25998;46.604;13.610;2023-08-31T07:53:47;18.30;99.90
40287;DHT22;25998;46.604;13.610;2023-08-31T07:56:59;19.30;99.90
40287;DHT22;25998;46.604;13.610;2023-08-31T08:00:11;19.90;99.90
40287;DHT22;25998;46.604;13.610;2023-08-31T08:03:23;19.60;99.90
40287;DHT22;25998;46.604;13.610;2023-08-31T08:06:34;18.90;99.90
40287;DHT22;25998;46.604;13.610;2023-08-31T08:09:44;19.00;99.90
40287;DHT22;25998;46.604;13.610;2023-08-31T08:12:55;18.60;99.90
40287;DHT22;25998;46.604;13.610;2023-08-31T08:16:06;18.60;99.90
40287;DHT22;25998;46.604;13.610;2023-08-31T08:19:23;18.50;99.90
40287;DHT22;25998;46.604;13.610;2023-08-31T08:22:34;19.40;99.90
40287;DHT22;25998;46.604;13.610;2023-08-31T08:25:46;20.10;99.90
40287;DHT22;25998;46.604;13.610;2023-08-31T08:28:57;20.20;99.90
40287;DHT22;25998;46.604;13.610;2023-08-31T08:32:08;20.00;99.90
40287;DHT22;25998;46.604;13.610;2023-08-31T08:35:19;19.50;99.90
40287;DHT22;25998;46.604;13.610;2023-08-31T08:38:30;19.60;99.90
40287;DHT22;25998;46.604;13.610;2023-08-31T08:41:41;20.20;99.90
40287;DHT22;25998;46.604;13.610;2023-08-31T08:44:52;20.00;99.90
40287;DHT22;25998;46.604;13.610;2023-08-31T08:48:06;19.80;99.90
40287;DHT22;25998;46.604;13.610;2023-08-31T08:51:17;19.80;99.90
40287;DHT22;25998;46.604;13.610;2023-08-31T08:54:29;20.40;99.90
40287;DHT22;25998;46.604;13.610;2023-08-31T08:57:39;20.30;99.90
40287;DHT22;25998;46.604;13.610;2023-08-31T09:00:51;20.00;99.90
40287;DHT22;25998;46.604;13.610;2023-08-31T09:04:02;20.70;99.90
40287;DHT22;25998;46.604;13.610;2023-08-31T09:07:13;21.10;99.90
40287;DHT22;25998;46.604;13.610;2023-08-31T09:10:33;21.40;99.90
40287;DHT22;25998;46.604;13.610;2023-08-31T09:13:44;21.90;99.90
40287;DHT22;25998;46.604;13.610;2023-08-31T09:16:55;22.30;99.70
40287;DHT22;25998;46.604;13.610;2023-08-31T09:20:07;22.30;99.20
40287;DHT22;25998;46.604;13.610;2023-08-31T09:23:18;22.30;99.20
40287;DHT22;25998;46.604;13.610;2023-08-31T09:26:37;22.40;98.50
40287;DHT22;25998;46.604;13.610;2023-08-31T09:29:48;22.30;99.00
40287;DHT22;25998;46.604;13.610;2023-08-31T09:32:59;22.50;99.10
40287;DHT22;25998;46.604;13.610;2023-08-31T09:36:09;22.70;98.20
40287;DHT22;25998;46.604;13.610;2023-08-31T09:39:20;22.60;98.60
40287;DHT22;25998;46.604;13.610;2023-08-31T09:42:37;22.90;98.10
40287;DHT22;25998;46.604;13.610;2023-08-31T09:45:50;23.00;98.60
40287;DHT22;25998;46.604;13.610;2023-08-31T09:49:01;23.30;97.70
40287;DHT22;25998;46.604;13.610;2023-08-31T09:52:13;23.30;97.20
40287;DHT22;25998;46.604;13.610;2023-08-31T09:55:27;23.00;96.90
40287;DHT22;25998;46.604;13.610;2023-08-31T09:58:39;23.00;97.40
40287;DHT22;25998;46.604;13.610;2023-08-31T10:01:50;23.10;96.80
40287;DHT22;25998;46.604;13.610;2023-08-31T10:05:01;23.50;96.80
40287;DHT22;25998;46.604;13.610;2023-08-31T10:08:12;23.60;95.50
40287;DHT22;25998;46.604;13.610;2023-08-31T10:11:25;23.30;94.50
40287;DHT22;25998;46.604;13.610;2023-08-31T10:14:39;23.10;95.40
40287;DHT22;25998;46.604;13.610;2023-08-31T10:17:51;23.30;95.70
40287;DHT22;25998;46.604;13.610;2023-08-31T10:21:03;23.30;96.30
40287;DHT22;25998;46.604;13.610;2023-08-31T10:24:14;23.20;96.30
40287;DHT22;25998;46.604;13.610;2023-08-31T10:27:25;22.90;97.80
40287;DHT22;25998;46.604;13.610;2023-08-31T10:30:36;22.50;97.30
40287;DHT22;25998;46.604;13.610;2023-08-31T10:37:19;22.00;98.00
40287;DHT22;25998;46.604;13.610;2023-08-31T10:40:32;21.90;97.60
40287;DHT22;25998;46.604;13.610;2023-08-31T10:43:48;21.80;98.40
40287;DHT22;25998;46.604;13.610;2023-08-31T10:47:05;21.80;98.00
40287;DHT22;25998;46.604;13.610;2023-08-31T10:50:19;22.00;98.20
40287;DHT22;25998;46.604;13.610;2023-08-31T10:53:31;21.80;99.10
40287;DHT22;25998;46.604;13.610;2023-08-31T11:00:50;21.90;99.90
40287;DHT22;25998;46.604;13.610;2023-08-31T11:04:11;21.90;99.50
40287;DHT22;25998;46.604;13.610;2023-08-31T11:07:26;22.00;99.90
40287;DHT22;25998;46.604;13.610;2023-08-31T11:10:39;22.20;99.10
40287;DHT22;25998;46.604;13.610;2023-08-31T11:13:56;22.20;98.70
40287;DHT22;25998;46.604;13.610;2023-08-31T11:17:08;22.30;99.90
40287;DHT22;25998;46.604;13.610;2023-08-31T11:20:24;22.30;99.90
40287;DHT22;25998;46.604;13.610;2023-08-31T11:23:38;22.40;99.90
40287;DHT22;25998;46.604;13.610;2023-08-31T11:26:55;22.20;99.90
40287;DHT22;25998;46.604;13.610;2023-08-31T11:30:12;22.20;99.50
40287;DHT22;25998;46.604;13.610;2023-08-31T11:33:24;22.10;99.30
40287;DHT22;25998;46.604;13.610;2023-08-31T11:36:43;22.30;99.60
40287;DHT22;25998;46.604;13.610;2023-08-31T11:39:54;22.70;99.70
40287;DHT22;25998;46.604;13.610;2023-08-31T11:43:05;23.20;97.10
40287;DHT22;25998;46.604;13.610;2023-08-31T11:46:19;23.70;97.70
40287;DHT22;25998;46.604;13.610;2023-08-31T11:49:30;23.80;95.60
40287;DHT22;25998;46.604;13.610;2023-08-31T11:52:42;23.30;94.20
40287;DHT22;25998;46.604;13.610;2023-08-31T11:55:53;23.10;95.30
40287;DHT22;25998;46.604;13.610;2023-08-31T11:59:10;23.10;96.30
40287;DHT22;25998;46.604;13.610;2023-08-31T12:02:22;23.20;96.60
40287;DHT22;25998;46.604;13.610;2023-08-31T12:05:47;22.90;96.10
40287;DHT22;25998;46.604;13.610;2023-08-31T12:08:58;22.70;96.80
40287;DHT22;25998;46.604;13.610;2023-08-31T12:12:09;22.60;97.40
40287;DHT22;25998;46.604;13.610;2023-08-31T12:15:20;22.70;97.30
40287;DHT22;25998;46.604;13.610;2023-08-31T12:18:37;22.70;96.60
40287;DHT22;25998;46.604;13.610;2023-08-31T12:21:48;22.50;96.80
40287;DHT22;25998;46.604;13.610;2023-08-31T12:24:59;22.50;97.50
40287;DHT22;25998;46.604;13.610;2023-08-31T12:28:10;22.10;95.80
40287;DHT22;25998;46.604;13.610;2023-08-31T12:31:22;22.10;97.20
40287;DHT22;25998;46.604;13.610;2023-08-31T12:34:33;22.20;96.00
40287;DHT22;25998;46.604;13.610;2023-08-31T12:37:44;22.20;95.40
40287;DHT22;25998;46.604;13.610;2023-08-31T12:40:54;22.20;96.90
40287;DHT22;25998;46.604;13.610;2023-08-31T12:44:07;22.20;97.70
40287;DHT22;25998;46.604;13.610;2023-08-31T12:47:18;22.00;99.60
40287;DHT22;25998;46.604;13.610;2023-08-31T12:50:28;22.00;99.70
40287;DHT22;25998;46.604;13.610;2023-08-31T12:53:40;21.90;99.70
40287;DHT22;25998;46.604;13.610;2023-08-31T12:56:51;21.80;99.20
40287;DHT22;25998;46.604;13.610;2023-08-31T13:00:02;21.70;99.90
40287;DHT22;25998;46.604;13.610;2023-08-31T13:03:19;21.70;99.90
40287;DHT22;25998;46.604;13.610;2023-08-31T13:06:30;21.80;99.90
40287;DHT22;25998;46.604;13.610;2023-08-31T13:09:41;21.80;98.40
40287;DHT22;25998;46.604;13.610;2023-08-31T13:12:52;21.90;96.10
40287;DHT22;25998;46.604;13.610;2023-08-31T13:16:03;21.90;95.20
40287;DHT22;25998;46.604;13.610;2023-08-31T13:19:14;21.70;99.30
40287;DHT22;25998;46.604;13.610;2023-08-31T13:22:25;21.50;99.90
40287;DHT22;25998;46.604;13.610;2023-08-31T13:25:36;21.40;99.90
40287;DHT22;25998;46.604;13.610;2023-08-31T13:28:47;21.40;99.90
40287;DHT22;25998;46.604;13.610;2023-08-31T13:31:58;21.30;99.90
40287;DHT22;25998;46.604;13.610;2023-08-31T13:35:09;21.40;99.90
40287;DHT22;25998;46.604;13.610;2023-08-31T13:38:20;21.30;99.90
40287;DHT22;25998;46.604;13.610;2023-08-31T13:41:31;21.20;99.90
40287;DHT22;25998;46.604;13.610;2023-08-31T13:44:42;21.10;99.90
40287;DHT22;25998;46.604;13.610;2023-08-31T13:47:53;21.30;99.90
40287;DHT22;25998;46.604;13.610;2023-08-31T13:51:04;21.30;99.90
40287;DHT22;25998;46.604;13.610;2023-08-31T13:54:15;21.40;99.90
40287;DHT22;25998;46.604;13.610;2023-08-31T13:57:26;21.50;98.30
40287;DHT22;25998;46.604;13.610;2023-08-31T14:00:36;21.60;99.20
40287;DHT22;25998;46.604;13.610;2023-08-31T14:03:47;21.70;98.60
40287;DHT22;25998;46.604;13.610;2023-08-31T14:06:58;21.50;99.70
40287;DHT22;25998;46.604;13.610;2023-08-31T14:10:09;21.60;98.80
40287;DHT22;25998;46.604;13.610;2023-08-31T14:13:20;21.50;95.90
40287;DHT22;25998;46.604;13.610;2023-08-31T14:16:31;21.40;97.00
40287;DHT22;25998;46.604;13.610;2023-08-31T14:19:42;21.50;98.60
40287;DHT22;25998;46.604;13.610;2023-08-31T14:22:53;21.50;97.70
40287;DHT22;25998;46.604;13.610;2023-08-31T14:26:04;21.50;97.80
40287;DHT22;25998;46.604;13.610;2023-08-31T14:29:15;21.50;99.40
40287;DHT22;25998;46.604;13.610;2023-08-31T14:32:26;21.50;99.90
40287;DHT22;25998;46.604;13.610;2023-08-31T14:35:38;21.40;99.90
40287;DHT22;25998;46.604;13.610;2023-08-31T14:38:49;21.20;99.90
40287;DHT22;25998;46.604;13.610;2023-08-31T14:41:59;21.10;99.90
40287;DHT22;25998;46.604;13.610;2023-08-31T14:45:10;20.90;99.90
40287;DHT22;25998;46.604;13.610;2023-08-31T14:48:21;20.80;99.90
40287;DHT22;25998;46.604;13.610;2023-08-31T14:51:32;20.80;99.90
40287;DHT22;25998;46.604;13.610;2023-08-31T14:54:43;20.80;99.90
40287;DHT22;25998;46.604;13.610;2023-08-31T14:57:54;20.90;99.90
40287;DHT22;25998;46.604;13.610;2023-08-31T15:01:05;21.00;99.90
40287;DHT22;25998;46.604;13.610;2023-08-31T15:04:16;21.00;99.90
40287;DHT22;25998;46.604;13.610;2023-08-31T15:07:27;21.30;99.90
40287;DHT22;25998;46.604;13.610;2023-08-31T15:10:38;21.40;99.90
40287;DHT22;25998;46.604;13.610;2023-08-31T15:13:50;21.30;99.90
40287;DHT22;25998;46.604;13.610;2023-08-31T15:17:01;21.40;99.90
40287;DHT22;25998;46.604;13.610;2023-08-31T15:20:12;21.40;99.90
40287;DHT22;25998;46.604;13.610;2023-08-31T15:23:22;21.20;99.90
40287;DHT22;25998;46.604;13.610;2023-08-31T15:26:33;21.40;99.80
40287;DHT22;25998;46.604;13.610;2023-08-31T15:29:44;21.60;97.90
40287;DHT22;25998;46.604;13.610;2023-08-31T15:33:01;21.50;95.90
40287;DHT22;25998;46.604;13.610;2023-08-31T15:36:13;21.50;99.20
40287;DHT22;25998;46.604;13.610;2023-08-31T15:39:23;21.50;97.80
40287;DHT22;25998;46.604;13.610;2023-08-31T15:42:34;21.30;98.50
40287;DHT22;25998;46.604;13.610;2023-08-31T15:45:45;21.20;99.50
40287;DHT22;25998;46.604;13.610;2023-08-31T15:48:57;20.70;99.90
40287;DHT22;25998;46.604;13.610;2023-08-31T15:52:08;20.30;99.90
40287;DHT22;25998;46.604;13.610;2023-08-31T15:55:19;20.10;99.90
40287;DHT22;25998;46.604;13.610;2023-08-31T15:58:30;20.20;99.90
40287;DHT22;25998;46.604;13.610;2023-08-31T16:01:42;20.10;99.90
40287;DHT22;25998;46.604;13.610;2023-08-31T16:04:53;20.10;99.90
40287;DHT22;25998;46.604;13.610;2023-08-31T16:08:05;19.80;99.90
40287;DHT22;25998;46.604;13.610;2023-08-31T16:11:15;19.80;99.90
40287;DHT22;25998;46.604;13.610;2023-08-31T16:14:27;19.70;99.90
40287;DHT22;25998;46.604;13.610;2023-08-31T16:17:37;19.80;99.90
40287;DHT22;25998;46.604;13.610;2023-08-31T16:20:49;19.80;99.90
40287;DHT22;25998;46.604;13.610;2023-08-31T16:23:59;19.70;99.90
40287;DHT22;25998;46.604;13.610;2023-08-31T16:27:10;19.80;99.90
40287;DHT22;25998;46.604;13.610;2023-08-31T16:30:21;19.80;99.90
40287;DHT22;25998;46.604;13.610;2023-08-31T16:33:32;19.90;99.90
40287;DHT22;25998;46.604;13.610;2023-08-31T16:36:43;19.90;99.90
40287;DHT22;25998;46.604;13.610;2023-08-31T16:39:54;19.90;99.90
40287;DHT22;25998;46.604;13.610;2023-08-31T16:43:05;19.80;99.90
40287;DHT22;25998;46.604;13.610;2023-08-31T16:46:15;19.70;99.90
40287;DHT22;25998;46.604;13.610;2023-08-31T16:49:27;19.70;99.90
40287;DHT22;25998;46.604;13.610;2023-08-31T16:52:38;19.60;99.90
40287;DHT22;25998;46.604;13.610;2023-08-31T16:55:49;19.50;99.90
40287;DHT22;25998;46.604;13.610;2023-08-31T16:59:00;19.40;99.90
40287;DHT22;25998;46.604;13.610;2023-08-31T17:02:11;19.40;99.90
40287;DHT22;25998;46.604;13.610;2023-08-31T17:05:22;19.30;99.90
40287;DHT22;25998;46.604;13.610;2023-08-31T17:08:34;19.40;99.90
40287;DHT22;25998;46.604;13.610;2023-08-31T17:11:45;19.30;99.90
40287;DHT22;25998;46.604;13.610;2023-08-31T17:14:56;19.30;99.90
40287;DHT22;25998;46.604;13.610;2023-08-31T17:18:07;19.00;99.90
40287;DHT22;25998;46.604;13.610;2023-08-31T17:21:18;18.90;99.90
40287;DHT22;25998;46.604;13.610;2023-08-31T17:24:29;19.00;99.90
40287;DHT22;25998;46.604;13.610;2023-08-31T17:27:40;18.90;99.90
40287;DHT22;25998;46.604;13.610;2023-08-31T17:30:51;18.80;99.90
40287;DHT22;25998;46.604;13.610;2023-08-31T17:34:01;18.90;99.90
40287;DHT22;25998;46.604;13.610;2023-08-31T17:37:12;18.80;99.90
40287;DHT22;25998;46.604;13.610;2023-08-31T17:40:23;18.60;99.90
40287;DHT22;25998;46.604;13.610;2023-08-31T17:43:34;18.60;99.90
40287;DHT22;25998;46.604;13.610;2023-08-31T17:46:45;18.60;99.90
40287;DHT22;25998;46.604;13.610;2023-08-31T17:49:56;18.70;99.90
40287;DHT22;25998;46.604;13.610;2023-08-31T17:53:07;18.40;99.90
40287;DHT22;25998;46.604;13.610;2023-08-31T17:56:17;18.20;99.90
40287;DHT22;25998;46.604;13.610;2023-08-31T17:59:28;18.00;99.90
40287;DHT22;25998;46.604;13.610;2023-08-31T18:02:40;18.00;99.90
40287;DHT22;25998;46.604;13.610;2023-08-31T18:05:52;17.90;99.90
40287;DHT22;25998;46.604;13.610;2023-08-31T18:09:04;17.80;99.90
40287;DHT22;25998;46.604;13.610;2023-08-31T18:12:15;17.80;99.90
40287;DHT22;25998;46.604;13.610;2023-08-31T18:15:26;17.90;99.90
40287;DHT22;25998;46.604;13.610;2023-08-31T18:18:38;17.70;99.90
40287;DHT22;25998;46.604;13.610;2023-08-31T18:21:48;17.70;99.90
40287;DHT22;25998;46.604;13.610;2023-08-31T18:25:00;17.70;99.90
40287;DHT22;25998;46.604;13.610;2023-08-31T18:28:10;17.90;99.90
40287;DHT22;25998;46.604;13.610;2023-08-31T18:31:21;17.90;99.90
40287;DHT22;25998;46.604;13.610;2023-08-31T18:34:37;17.80;99.90
40287;DHT22;25998;46.604;13.610;2023-08-31T18:37:48;17.70;99.90
40287;DHT22;25998;46.604;13.610;2023-08-31T18:40:59;17.40;99.90
40287;DHT22;25998;46.604;13.610;2023-08-31T18:44:10;17.30;99.90
40287;DHT22;25998;46.604;13.610;2023-08-31T18:47:20;17.20;99.90
40287;DHT22;25998;46.604;13.610;2023-08-31T18:50:31;17.20;99.90
40287;DHT22;25998;46.604;13.610;2023-08-31T18:53:42;17.20;99.90
40287;DHT22;25998;46.604;13.610;2023-08-31T18:56:53;17.20;99.90
40287;DHT22;25998;46.604;13.610;2023-08-31T19:00:04;17.30;99.90
40287;DHT22;25998;46.604;13.610;2023-08-31T19:03:15;17.20;99.90
40287;DHT22;25998;46.604;13.610;2023-08-31T19:06:26;17.20;99.90
40287;DHT22;25998;46.604;13.610;2023-08-31T19:09:42;17.20;99.90
40287;DHT22;25998;46.604;13.610;2023-08-31T19:12:53;16.90;99.90
40287;DHT22;25998;46.604;13.610;2023-08-31T19:16:04;16.90;99.90
40287;DHT22;25998;46.604;13.610;2023-08-31T19:19:14;16.90;99.90
40287;DHT22;25998;46.604;13.610;2023-08-31T19:22:26;17.00;99.90
40287;DHT22;25998;46.604;13.610;2023-08-31T19:25:37;17.10;99.90
40287;DHT22;25998;46.604;13.610;2023-08-31T19:28:49;17.10;99.90
40287;DHT22;25998;46.604;13.610;2023-08-31T19:32:00;17.20;99.90
40287;DHT22;25998;46.604;13.610;2023-08-31T19:35:12;17.20;99.90
40287;DHT22;25998;46.604;13.610;2023-08-31T19:38:24;16.90;99.90
40287;DHT22;25998;46.604;13.610;2023-08-31T19:41:35;16.70;99.90
40287;DHT22;25998;46.604;13.610;2023-08-31T19:44:46;16.70;99.90
40287;DHT22;25998;46.604;13.610;2023-08-31T19:47:57;16.60;99.90
40287;DHT22;25998;46.604;13.610;2023-08-31T19:51:08;16.60;99.90
40287;DHT22;25998;46.604;13.610;2023-08-31T19:54:19;16.60;99.90
40287;DHT22;25998;46.604;13.610;2023-08-31T19:57:30;16.80;99.90
40287;DHT22;25998;46.604;13.610;2023-08-31T20:00:41;16.80;99.90
40287;DHT22;25998;46.604;13.610;2023-08-31T20:03:52;16.80;99.90
40287;DHT22;25998;46.604;13.610;2023-08-31T20:07:03;16.80;99.90
40287;DHT22;25998;46.604;13.610;2023-08-31T20:10:15;16.90;99.90
40287;DHT22;25998;46.604;13.610;2023-08-31T20:13:26;16.80;99.90
40287;DHT22;25998;46.604;13.610;2023-08-31T20:16:37;16.70;99.90
40287;DHT22;25998;46.604;13.610;2023-08-31T20:19:48;16.60;99.90
40287;DHT22;25998;46.604;13.610;2023-08-31T20:22:59;16.70;99.90
40287;DHT22;25998;46.604;13.610;2023-08-31T20:26:10;16.50;99.90
40287;DHT22;25998;46.604;13.610;2023-08-31T20:29:21;16.50;99.90
40287;DHT22;25998;46.604;13.610;2023-08-31T20:32:32;16.60;99.90
40287;DHT22;25998;46.604;13.610;2023-08-31T20:35:44;16.60;99.90